Aviation Digital Data Service (ADDS)

Output produced by METARs form (0204 UTC 20 September 2020)
found at http://www.aviationweather.gov/metar/data/
 
METAR text: KMDW 200153Z 12005KT 10SM CLR 14/04 A3032 RMK AO2 SLP269 T01390044
Conditions at: KMDW (CHICAGO , IL, US) observed 0153 UTC 20 September 2020
Temperature: 13.9°C (57°F)
Dewpoint: 4.4°C (40°F) [RH = 53%]
Pressure (altimeter): 30.32 inches Hg (1026.8 mb)
[Sea-level pressure: 1026.9 mb]
Winds: from the ESE (120 degrees) at 6 MPH (5 knots; 2.6 m/s)
Visibility: 10 or more miles (16+ km)
Ceiling: at least 12,000 feet AGL
Clouds: sky clear below 12,000 feet AGL
Weather: no significant weather observed at this time

METAR text: KMDW 200053Z 11005KT 10SM CLR 16/04 A3031 RMK AO2 SLP264 T01560039
Conditions at: KMDW (CHICAGO , IL, US) observed 0053 UTC 20 September 2020
Temperature: 15.6°C (60°F)
Dewpoint: 3.9°C (39°F) [RH = 46%]
Pressure (altimeter): 30.31 inches Hg (1026.5 mb)
[Sea-level pressure: 1026.4 mb]
Winds: from the ESE (110 degrees) at 6 MPH (5 knots; 2.6 m/s)
Visibility: 10 or more miles (16+ km)
Ceiling: at least 12,000 feet AGL
Clouds: sky clear below 12,000 feet AGL
Weather: no significant weather observed at this time

METAR text: KMDW 192353Z 10006KT 10SM FEW250 16/03 A3030 RMK AO2 SLP262 T01560033 10183 20156 56004
Conditions at: KMDW (CHICAGO , IL, US) observed 2353 UTC 19 September 2020
Temperature: 15.6°C (60°F)
Dewpoint: 3.3°C (38°F) [RH = 44%]
Pressure (altimeter): 30.30 inches Hg (1026.2 mb)
[Sea-level pressure: 1026.2 mb]
Winds: from the E (100 degrees) at 7 MPH (6 knots; 3.1 m/s)
Visibility: 10 or more miles (16+ km)
Ceiling: at least 12,000 feet AGL
Clouds: few clouds at 25000 feet AGL
Weather: no significant weather observed at this time

METAR text: KMDW 192253Z 12008KT 10SM FEW250 17/03 A3030 RMK AO2 SLP263 T01670033
Conditions at: KMDW (CHICAGO , IL, US) observed 2253 UTC 19 September 2020
Temperature: 16.7°C (62°F)
Dewpoint: 3.3°C (38°F) [RH = 41%]
Pressure (altimeter): 30.30 inches Hg (1026.2 mb)
[Sea-level pressure: 1026.3 mb]
Winds: from the ESE (120 degrees) at 9 MPH (8 knots; 4.1 m/s)
Visibility: 10 or more miles (16+ km)
Ceiling: at least 12,000 feet AGL
Clouds: few clouds at 25000 feet AGL
Weather: no significant weather observed at this time

METAR text: KMDW 192153Z 09009KT 10SM FEW250 17/03 A3030 RMK AO2 SLP261 T01720033
Conditions at: KMDW (CHICAGO , IL, US) observed 2153 UTC 19 September 2020
Temperature: 17.2°C (63°F)
Dewpoint: 3.3°C (38°F) [RH = 39%]
Pressure (altimeter): 30.30 inches Hg (1026.2 mb)
[Sea-level pressure: 1026.1 mb]
Winds: from the E (90 degrees) at 10 MPH (9 knots; 4.6 m/s)
Visibility: 10 or more miles (16+ km)
Ceiling: at least 12,000 feet AGL
Clouds: few clouds at 25000 feet AGL
Weather: no significant weather observed at this time

METAR text: KMDW 192053Z 11009KT 10SM FEW250 18/03 A3031 RMK AO2 SLP264 T01780033 56022
Conditions at: KMDW (CHICAGO , IL, US) observed 2053 UTC 19 September 2020
Temperature: 17.8°C (64°F)
Dewpoint: 3.3°C (38°F) [RH = 38%]
Pressure (altimeter): 30.31 inches Hg (1026.5 mb)
[Sea-level pressure: 1026.4 mb]
Winds: from the ESE (110 degrees) at 10 MPH (9 knots; 4.6 m/s)
Visibility: 10 or more miles (16+ km)
Ceiling: at least 12,000 feet AGL
Clouds: few clouds at 25000 feet AGL
Weather: no significant weather observed at this time

METAR text: KMDW 191953Z 15008KT 10SM FEW250 18/03 A3033 RMK AO2 SLP269 T01780033
Conditions at: KMDW (CHICAGO , IL, US) observed 1953 UTC 19 September 2020
Temperature: 17.8°C (64°F)
Dewpoint: 3.3°C (38°F) [RH = 38%]
Pressure (altimeter): 30.33 inches Hg (1027.2 mb)
[Sea-level pressure: 1026.9 mb]
Winds: from the SSE (150 degrees) at 9 MPH (8 knots; 4.1 m/s)
Visibility: 10 or more miles (16+ km)
Ceiling: at least 12,000 feet AGL
Clouds: few clouds at 25000 feet AGL
Weather: no significant weather observed at this time

METAR text: KMDW 191853Z 11004KT 10SM FEW250 18/02 A3035 RMK AO2 SLP278 T01780022
Conditions at: KMDW (CHICAGO , IL, US) observed 1853 UTC 19 September 2020
Temperature: 17.8°C (64°F)
Dewpoint: 2.2°C (36°F) [RH = 35%]
Pressure (altimeter): 30.35 inches Hg (1027.9 mb)
[Sea-level pressure: 1027.8 mb]
Winds: from the ESE (110 degrees) at 5 MPH (4 knots; 2.1 m/s)
Visibility: 10 or more miles (16+ km)
Ceiling: at least 12,000 feet AGL
Clouds: few clouds at 25000 feet AGL
Weather: no significant weather observed at this time

METAR text: KMDW 191753Z VRB03KT 10SM FEW047 FEW250 17/03 A3038 RMK AO2 SLP287 T01720028 10172 20089 58010
Conditions at: KMDW (CHICAGO , IL, US) observed 1753 UTC 19 September 2020
Temperature: 17.2°C (63°F)
Dewpoint: 2.8°C (37°F) [RH = 38%]
Pressure (altimeter): 30.38 inches Hg (1028.9 mb)
[Sea-level pressure: 1028.7 mb]
Winds: variable direction winds at 3 MPH (3 knots; 1.5 m/s)
Visibility: 10 or more miles (16+ km)
Ceiling: at least 12,000 feet AGL
Clouds: few clouds at 4700 feet AGL
few clouds at 25000 feet AGL
Weather: no significant weather observed at this time

METAR text: KMDW 191653Z 21005KT 10SM FEW045 16/02 A3040 RMK AO2 SLP295 T01610022
Conditions at: KMDW (CHICAGO , IL, US) observed 1653 UTC 19 September 2020
Temperature: 16.1°C (61°F)
Dewpoint: 2.2°C (36°F) [RH = 39%]
Pressure (altimeter): 30.40 inches Hg (1029.5 mb)
[Sea-level pressure: 1029.5 mb]
Winds: from the SSW (210 degrees) at 6 MPH (5 knots; 2.6 m/s)
Visibility: 10 or more miles (16+ km)
Ceiling: at least 12,000 feet AGL
Clouds: few clouds at 4500 feet AGL
Weather: no significant weather observed at this time

METAR text: KMDW 191553Z 18007KT 10SM FEW045 FEW200 15/02 A3042 RMK AO2 SLP301 T01500022
Conditions at: KMDW (CHICAGO , IL, US) observed 1553 UTC 19 September 2020
Temperature: 15.0°C (59°F)
Dewpoint: 2.2°C (36°F) [RH = 42%]
Pressure (altimeter): 30.42 inches Hg (1030.2 mb)
[Sea-level pressure: 1030.1 mb]
Winds: from the S (180 degrees) at 8 MPH (7 knots; 3.6 m/s)
Visibility: 10 or more miles (16+ km)
Ceiling: at least 12,000 feet AGL
Clouds: few clouds at 4500 feet AGL
few clouds at 20000 feet AGL
Weather: no significant weather observed at this time

METAR text: KMDW 191453Z 17006KT 10SM FEW044 FEW200 14/03 A3041 RMK AO2 SLP299 T01390028 53008
Conditions at: KMDW (CHICAGO , IL, US) observed 1453 UTC 19 September 2020
Temperature: 13.9°C (57°F)
Dewpoint: 2.8°C (37°F) [RH = 47%]
Pressure (altimeter): 30.41 inches Hg (1029.9 mb)
[Sea-level pressure: 1029.9 mb]
Winds: from the S (170 degrees) at 7 MPH (6 knots; 3.1 m/s)
Visibility: 10 or more miles (16+ km)
Ceiling: at least 12,000 feet AGL
Clouds: few clouds at 4400 feet AGL
few clouds at 20000 feet AGL
Weather: no significant weather observed at this time

METAR text: KMDW 191353Z 18009KT 10SM FEW044 12/02 A3040 RMK AO2 SLP295 T01170022
Conditions at: KMDW (CHICAGO , IL, US) observed 1353 UTC 19 September 2020
Temperature: 11.7°C (53°F)
Dewpoint: 2.2°C (36°F) [RH = 52%]
Pressure (altimeter): 30.40 inches Hg (1029.5 mb)
[Sea-level pressure: 1029.5 mb]
Winds: from the S (180 degrees) at 10 MPH (9 knots; 4.6 m/s)
Visibility: 10 or more miles (16+ km)
Ceiling: at least 12,000 feet AGL
Clouds: few clouds at 4400 feet AGL
Weather: no significant weather observed at this time

METAR text: KMDW 191253Z 16007KT 10SM FEW044 10/02 A3039 RMK AO2 SLP293 T01000017
Conditions at: KMDW (CHICAGO , IL, US) observed 1253 UTC 19 September 2020
Temperature: 10.0°C (50°F)
Dewpoint: 1.7°C (35°F) [RH = 56%]
Pressure (altimeter): 30.39 inches Hg (1029.2 mb)
[Sea-level pressure: 1029.3 mb]
Winds: from the SSE (160 degrees) at 8 MPH (7 knots; 3.6 m/s)
Visibility: 10 or more miles (16+ km)
Ceiling: at least 12,000 feet AGL
Clouds: few clouds at 4400 feet AGL
Weather: no significant weather observed at this time

METAR text: KMDW 191153Z 16006KT 10SM FEW044 09/02 A3039 RMK AO2 SLP291 T00890017 10106 20083 53008
Conditions at: KMDW (CHICAGO , IL, US) observed 1153 UTC 19 September 2020
Temperature: 8.9°C (48°F)
Dewpoint: 1.7°C (35°F) [RH = 61%]
Pressure (altimeter): 30.39 inches Hg (1029.2 mb)
[Sea-level pressure: 1029.1 mb]
Winds: from the SSE (160 degrees) at 7 MPH (6 knots; 3.1 m/s)
Visibility: 10 or more miles (16+ km)
Ceiling: at least 12,000 feet AGL
Clouds: few clouds at 4400 feet AGL
Weather: no significant weather observed at this time

METAR text: KMDW 191053Z 16007KT 10SM FEW044 09/02 A3037 RMK AO2 SLP287 T00890017
Conditions at: KMDW (CHICAGO , IL, US) observed 1053 UTC 19 September 2020
Temperature: 8.9°C (48°F)
Dewpoint: 1.7°C (35°F) [RH = 61%]
Pressure (altimeter): 30.37 inches Hg (1028.5 mb)
[Sea-level pressure: 1028.7 mb]
Winds: from the SSE (160 degrees) at 8 MPH (7 knots; 3.6 m/s)
Visibility: 10 or more miles (16+ km)
Ceiling: at least 12,000 feet AGL
Clouds: few clouds at 4400 feet AGL
Weather: no significant weather observed at this time

METAR text: KMDW 190953Z 15005KT 10SM FEW044 09/01 A3037 RMK AO2 SLP284 T00890011
Conditions at: KMDW (CHICAGO , IL, US) observed 0953 UTC 19 September 2020
Temperature: 8.9°C (48°F)
Dewpoint: 1.1°C (34°F) [RH = 58%]
Pressure (altimeter): 30.37 inches Hg (1028.5 mb)
[Sea-level pressure: 1028.4 mb]
Winds: from the SSE (150 degrees) at 6 MPH (5 knots; 2.6 m/s)
Visibility: 10 or more miles (16+ km)
Ceiling: at least 12,000 feet AGL
Clouds: few clouds at 4400 feet AGL
Weather: no significant weather observed at this time

METAR text: KMDW 190853Z 18003KT 10SM FEW044 10/02 A3036 RMK AO2 SLP282 T01000022 50000
Conditions at: KMDW (CHICAGO , IL, US) observed 0853 UTC 19 September 2020
Temperature: 10.0°C (50°F)
Dewpoint: 2.2°C (36°F) [RH = 58%]
Pressure (altimeter): 30.36 inches Hg (1028.2 mb)
[Sea-level pressure: 1028.2 mb]
Winds: from the S (180 degrees) at 3 MPH (3 knots; 1.5 m/s)
Visibility: 10 or more miles (16+ km)
Ceiling: at least 12,000 feet AGL
Clouds: few clouds at 4400 feet AGL
Weather: no significant weather observed at this time

METAR text: KMDW 190753Z 00000KT 10SM SCT044 09/04 A3036 RMK AO2 SLP283 T00940039
Conditions at: KMDW (CHICAGO , IL, US) observed 0753 UTC 19 September 2020
Temperature: 9.4°C (49°F)
Dewpoint: 3.9°C (39°F) [RH = 68%]
Pressure (altimeter): 30.36 inches Hg (1028.2 mb)
[Sea-level pressure: 1028.3 mb]
Winds: calm
Visibility: 10 or more miles (16+ km)
Ceiling: at least 12,000 feet AGL
Clouds: scattered clouds at 4400 feet AGL
Weather: no significant weather observed at this time

METAR text: KMDW 190653Z 00000KT 10SM FEW040 09/04 A3036 RMK AO2 SLP283 T00940044
Conditions at: KMDW (CHICAGO , IL, US) observed 0653 UTC 19 September 2020
Temperature: 9.4°C (49°F)
Dewpoint: 4.4°C (40°F) [RH = 71%]
Pressure (altimeter): 30.36 inches Hg (1028.2 mb)
[Sea-level pressure: 1028.3 mb]
Winds: calm
Visibility: 10 or more miles (16+ km)
Ceiling: at least 12,000 feet AGL
Clouds: few clouds at 4000 feet AGL
Weather: no significant weather observed at this time

METAR text: KMDW 190553Z 00000KT 10SM FEW040 09/04 A3036 RMK AO2 SLP282 T00940039 10128 20094 401670094 58003
Conditions at: KMDW (CHICAGO , IL, US) observed 0553 UTC 19 September 2020
Temperature: 9.4°C (49°F)
Dewpoint: 3.9°C (39°F) [RH = 68%]
Pressure (altimeter): 30.36 inches Hg (1028.2 mb)
[Sea-level pressure: 1028.2 mb]
Winds: calm
Visibility: 10 or more miles (16+ km)
Ceiling: at least 12,000 feet AGL
Clouds: few clouds at 4000 feet AGL
Weather: no significant weather observed at this time

METAR text: KMDW 190453Z 00000KT 10SM FEW040 10/03 A3038 RMK AO2 SLP287 T01000033
Conditions at: KMDW (CHICAGO , IL, US) observed 0453 UTC 19 September 2020
Temperature: 10.0°C (50°F)
Dewpoint: 3.3°C (38°F) [RH = 63%]
Pressure (altimeter): 30.38 inches Hg (1028.9 mb)
[Sea-level pressure: 1028.7 mb]
Winds: calm
Visibility: 10 or more miles (16+ km)
Ceiling: at least 12,000 feet AGL
Clouds: few clouds at 4000 feet AGL
Weather: no significant weather observed at this time

METAR text: KMDW 190353Z 32005KT 10SM FEW040 10/03 A3038 RMK AO2 SLP289 T01000033
Conditions at: KMDW (CHICAGO , IL, US) observed 0353 UTC 19 September 2020
Temperature: 10.0°C (50°F)
Dewpoint: 3.3°C (38°F) [RH = 63%]
Pressure (altimeter): 30.38 inches Hg (1028.9 mb)
[Sea-level pressure: 1028.9 mb]
Winds: from the NW (320 degrees) at 6 MPH (5 knots; 2.6 m/s)
Visibility: 10 or more miles (16+ km)
Ceiling: at least 12,000 feet AGL
Clouds: few clouds at 4000 feet AGL
Weather: no significant weather observed at this time

METAR text: KMDW 190253Z 32005KT 10SM FEW040 11/03 A3037 RMK AO2 SLP285 T01060028 53008
Conditions at: KMDW (CHICAGO , IL, US) observed 0253 UTC 19 September 2020
Temperature: 10.6°C (51°F)
Dewpoint: 2.8°C (37°F) [RH = 58%]
Pressure (altimeter): 30.37 inches Hg (1028.5 mb)
[Sea-level pressure: 1028.5 mb]
Winds: from the NW (320 degrees) at 6 MPH (5 knots; 2.6 m/s)
Visibility: 10 or more miles (16+ km)
Ceiling: at least 12,000 feet AGL
Clouds: few clouds at 4000 feet AGL
Weather: no significant weather observed at this time

METAR text: KMDW 190153Z 01005KT 10SM CLR 12/02 A3036 RMK AO2 SLP281 T01220022
Conditions at: KMDW (CHICAGO , IL, US) observed 0153 UTC 19 September 2020
Temperature: 12.2°C (54°F)
Dewpoint: 2.2°C (36°F) [RH = 50%]
Pressure (altimeter): 30.36 inches Hg (1028.2 mb)
[Sea-level pressure: 1028.1 mb]
Winds: from the N (10 degrees) at 6 MPH (5 knots; 2.6 m/s)
Visibility: 10 or more miles (16+ km)
Ceiling: at least 12,000 feet AGL
Clouds: sky clear below 12,000 feet AGL
Weather: no significant weather observed at this time

METAR text: KMDW 190053Z 02008KT 10SM CLR 13/02 A3035 RMK AO2 SLP277 T01280022
Conditions at: KMDW (CHICAGO , IL, US) observed 0053 UTC 19 September 2020
Temperature: 12.8°C (55°F)
Dewpoint: 2.2°C (36°F) [RH = 48%]
Pressure (altimeter): 30.35 inches Hg (1027.9 mb)
[Sea-level pressure: 1027.7 mb]
Winds: from the NNE (20 degrees) at 9 MPH (8 knots; 4.1 m/s)
Visibility: 10 or more miles (16+ km)
Ceiling: at least 12,000 feet AGL
Clouds: sky clear below 12,000 feet AGL
Weather: no significant weather observed at this time

METAR text: KMDW 182353Z 02011KT 10SM FEW045 13/02 A3035 RMK AO2 SLP275 T01280017 10161 20128 53001
Conditions at: KMDW (CHICAGO , IL, US) observed 2353 UTC 18 September 2020
Temperature: 12.8°C (55°F)
Dewpoint: 1.7°C (35°F) [RH = 47%]
Pressure (altimeter): 30.35 inches Hg (1027.9 mb)
[Sea-level pressure: 1027.5 mb]
Winds: from the NNE (20 degrees) at 13 MPH (11 knots; 5.7 m/s)
Visibility: 10 or more miles (16+ km)
Ceiling: at least 12,000 feet AGL
Clouds: few clouds at 4500 feet AGL
Weather: no significant weather observed at this time

METAR text: KMDW 182253Z 02013KT 10SM FEW046 14/02 A3034 RMK AO2 SLP274 T01390022
Conditions at: KMDW (CHICAGO , IL, US) observed 2253 UTC 18 September 2020
Temperature: 13.9°C (57°F)
Dewpoint: 2.2°C (36°F) [RH = 45%]
Pressure (altimeter): 30.34 inches Hg (1027.5 mb)
[Sea-level pressure: 1027.4 mb]
Winds: from the NNE (20 degrees) at 15 MPH (13 knots; 6.7 m/s)
Visibility: 10 or more miles (16+ km)
Ceiling: at least 12,000 feet AGL
Clouds: few clouds at 4600 feet AGL
Weather: no significant weather observed at this time

METAR text: KMDW 182153Z 04016G22KT 10SM FEW046 15/02 A3034 RMK AO2 SLP273 T01500017
Conditions at: KMDW (CHICAGO , IL, US) observed 2153 UTC 18 September 2020
Temperature: 15.0°C (59°F)
Dewpoint: 1.7°C (35°F) [RH = 41%]
Pressure (altimeter): 30.34 inches Hg (1027.5 mb)
[Sea-level pressure: 1027.3 mb]
Winds: from the NE (40 degrees) at 18 MPH (16 knots; 8.2 m/s)
gusting to 25 MPH (22 knots; 11.3 m/s)
Visibility: 10 or more miles (16+ km)
Ceiling: at least 12,000 feet AGL
Clouds: few clouds at 4600 feet AGL
Weather: no significant weather observed at this time

METAR text: KMDW 182053Z 03014G21KT 10SM FEW046 16/02 A3034 RMK AO2 SLP274 T01560017 56016
Conditions at: KMDW (CHICAGO , IL, US) observed 2053 UTC 18 September 2020
Temperature: 15.6°C (60°F)
Dewpoint: 1.7°C (35°F) [RH = 39%]
Pressure (altimeter): 30.34 inches Hg (1027.5 mb)
[Sea-level pressure: 1027.4 mb]
Winds: from the NNE (30 degrees) at 16 MPH (14 knots; 7.2 m/s)
gusting to 24 MPH (21 knots; 10.8 m/s)
Visibility: 10 or more miles (16+ km)
Ceiling: at least 12,000 feet AGL
Clouds: few clouds at 4600 feet AGL
Weather: no significant weather observed at this time

METAR text: KMDW 181953Z 05012G22KT 10SM FEW005 FEW046 16/02 A3036 RMK AO2 SLP278 FU FEW005 T01560022
Conditions at: KMDW (CHICAGO , IL, US) observed 1953 UTC 18 September 2020
Temperature: 15.6°C (60°F)
Dewpoint: 2.2°C (36°F) [RH = 40%]
Pressure (altimeter): 30.36 inches Hg (1028.2 mb)
[Sea-level pressure: 1027.8 mb]
Winds: from the NE (50 degrees) at 14 MPH (12 knots; 6.2 m/s)
gusting to 25 MPH (22 knots; 11.3 m/s)
Visibility: 10 or more miles (16+ km)
Ceiling: at least 12,000 feet AGL
Clouds: few clouds at 500 feet AGL
few clouds at 4600 feet AGL
Weather: no significant weather observed at this time

METAR text: KMDW 181853Z 03016G24KT 10SM FEW046 16/02 A3037 RMK AO2 SLP283 T01560022
Conditions at: KMDW (CHICAGO , IL, US) observed 1853 UTC 18 September 2020
Temperature: 15.6°C (60°F)
Dewpoint: 2.2°C (36°F) [RH = 40%]
Pressure (altimeter): 30.37 inches Hg (1028.5 mb)
[Sea-level pressure: 1028.3 mb]
Winds: from the NNE (30 degrees) at 18 MPH (16 knots; 8.2 m/s)
gusting to 28 MPH (24 knots; 12.3 m/s)
Visibility: 10 or more miles (16+ km)
Ceiling: at least 12,000 feet AGL
Clouds: few clouds at 4600 feet AGL
Weather: no significant weather observed at this time

METAR text: KMDW 181753Z 05013G19KT 10SM BKN045 15/04 A3039 RMK AO2 SLP290 T01500039 10161 20139 50008
Conditions at: KMDW (CHICAGO , IL, US) observed 1753 UTC 18 September 2020
Temperature: 15.0°C (59°F)
Dewpoint: 3.9°C (39°F) [RH = 47%]
Pressure (altimeter): 30.39 inches Hg (1029.2 mb)
[Sea-level pressure: 1029.0 mb]
Winds: from the NE (50 degrees) at 15 MPH (13 knots; 6.7 m/s)
gusting to 22 MPH (19 knots; 9.8 m/s)
Visibility: 10 or more miles (16+ km)
Ceiling: 4500 feet AGL
Clouds: broken clouds at 4500 feet AGL
Weather: no significant weather observed at this time

METAR text: KMDW 181653Z 04018G22KT 10SM BKN043 BKN050 15/03 A3039 RMK AO2 SLP290 T01500033
Conditions at: KMDW (CHICAGO , IL, US) observed 1653 UTC 18 September 2020
Temperature: 15.0°C (59°F)
Dewpoint: 3.3°C (38°F) [RH = 45%]
Pressure (altimeter): 30.39 inches Hg (1029.2 mb)
[Sea-level pressure: 1029.0 mb]
Winds: from the NE (40 degrees) at 21 MPH (18 knots; 9.3 m/s)
gusting to 25 MPH (22 knots; 11.3 m/s)
Visibility: 10 or more miles (16+ km)
Ceiling: 4300 feet AGL
Clouds: broken clouds at 4300 feet AGL
broken clouds at 5000 feet AGL
Weather: no significant weather observed at this time

METAR text: KMDW 181553Z 07015G21KT 10SM BKN048 16/03 A3039 RMK AO2 SLP287 T01560028
Conditions at: KMDW (CHICAGO , IL, US) observed 1553 UTC 18 September 2020
Temperature: 15.6°C (60°F)
Dewpoint: 2.8°C (37°F) [RH = 42%]
Pressure (altimeter): 30.39 inches Hg (1029.2 mb)
[Sea-level pressure: 1028.7 mb]
Winds: from the ENE (70 degrees) at 17 MPH (15 knots; 7.7 m/s)
gusting to 24 MPH (21 knots; 10.8 m/s)
Visibility: 10 or more miles (16+ km)
Ceiling: 4800 feet AGL
Clouds: broken clouds at 4800 feet AGL
Weather: no significant weather observed at this time

METAR text: KMDW 181453Z 07015KT 10SM BKN042 BKN050 15/04 A3037 RMK AO2 SLP282 T01500044 53027
Conditions at: KMDW (CHICAGO , IL, US) observed 1453 UTC 18 September 2020
Temperature: 15.0°C (59°F)
Dewpoint: 4.4°C (40°F) [RH = 49%]
Pressure (altimeter): 30.37 inches Hg (1028.5 mb)
[Sea-level pressure: 1028.2 mb]
Winds: from the ENE (70 degrees) at 17 MPH (15 knots; 7.7 m/s)
Visibility: 10 or more miles (16+ km)
Ceiling: 4200 feet AGL
Clouds: broken clouds at 4200 feet AGL
broken clouds at 5000 feet AGL
Weather: no significant weather observed at this time

Forecast for: KMDW (CHICAGO , IL, US)
Text: KMDW 192320Z 2000/2106 11009KT P6SM SKC
Forecast period: 0000 to 0300 UTC 20 September 2020
Forecast type: FROM: standard forecast or significant change
Winds: from the ESE (110 degrees) at 10 MPH (9 knots; 4.6 m/s)
Visibility: 6 or more miles (10+ km)
Clouds: clear skies
Weather: no significant weather forecast for this period
Text: FM200300 14005KT P6SM SKC
Forecast period: 0300 to 1400 UTC 20 September 2020
Forecast type: FROM: standard forecast or significant change
Winds: from the SE (140 degrees) at 6 MPH (5 knots; 2.6 m/s)
Visibility: 6 or more miles (10+ km)
Clouds: clear skies
Weather: no significant weather forecast for this period
Text: FM201400 14011KT P6SM SCT200
Forecast period: 1400 UTC 20 September 2020 to 0600 UTC 21 September 2020
Forecast type: FROM: standard forecast or significant change
Winds: from the SE (140 degrees) at 13 MPH (11 knots; 5.7 m/s)
Visibility: 6 or more miles (10+ km)
Ceiling: at least 12,000 feet AGL
Clouds: scattered clouds at 20000 feet AGL
Weather: no significant weather forecast for this period